This is the latest recevied weather packets stored in our database for station/object AI9F. If no packets are shown the sender has not sent any weather packets the latest 1 day(s).
| Time | Temp. | Humidity | Pressure | Rain* | Wind** | Luminosity | Snow |
|---|---|---|---|---|---|---|---|
| 1778031538 | 8.33° C | 97% | 1009.5 hPa | 1.27 mm | 0.45 m/s, 127° | 0 W/m² | - |
| 1778031236 | 8.33° C | 97% | 1008.9 hPa | 4.32 mm | 0 m/s | 0 W/m² | - |
| 1778030932 | 8.33° C | 97% | 1009.5 hPa | 6.1 mm | 0.45 m/s, 113° | 0 W/m² | - |
| 1778030629 | 8.33° C | 97% | 1009.6 hPa | 10.16 mm | 0.45 m/s, 135° | 0 W/m² | - |
| 1778030326 | 8.33° C | 97% | 1009 hPa | 13.72 mm | 0.45 m/s, 88° | 0 W/m² | - |
| 1778030023 | 8.33° C | 97% | 1009.9 hPa | 12.7 mm | 0.45 m/s, 168° | 0 W/m² | - |
| 1778029720 | 8.89° C | 97% | 1010.3 hPa | 6.1 mm | 1.79 m/s, 259° | 0 W/m² | - |
| 1778029418 | 8.89° C | 97% | 1009.7 hPa | 3.05 mm | 0.45 m/s, 168° | 0 W/m² | - |
| 1778029115 | 8.33° C | 97% | 1009.2 hPa | 6.1 mm | 0 m/s | 0 W/m² | - |
| 1778028811 | 8.89° C | 96% | 1008.5 hPa | 4.32 mm | 0.45 m/s, 141° | 0 W/m² | - |
| 1778028507 | 8.89° C | 96% | 1008.7 hPa | 3.05 mm | 0.89 m/s, 82° | 0 W/m² | - |
| 1778028205 | 8.89° C | 96% | 1008.9 hPa | 7.87 mm | 0 m/s | 0 W/m² | - |
| 1778027901 | 8.89° C | 96% | 1008.7 hPa | 16.76 mm | 0.45 m/s, 97° | 0 W/m² | - |
| 1778027598 | 8.89° C | 96% | 1008.9 hPa | 16.76 mm | 0 m/s | 0 W/m² | - |
| 1778027294 | 8.89° C | 96% | 1008.5 hPa | 8.89 mm | 0 m/s | 1 W/m² | - |
| 1778026991 | 8.89° C | 96% | 1008.9 hPa | 4.83 mm | 0.45 m/s, 83° | 1 W/m² | - |
| 1778026686 | 8.89° C | 96% | 1008.6 hPa | 4.83 mm | 0.89 m/s, 52° | 1 W/m² | - |
| 1778026384 | 8.89° C | 96% | 1008.6 hPa | 4.32 mm | 0.45 m/s, 129° | 1 W/m² | - |
| 1778026080 | 9.44° C | 96% | 1008.3 hPa | 1.27 mm | 0 m/s | 4 W/m² | - |
| 1778025778 | 9.44° C | 96% | 1008.9 hPa | 0 mm | 0 m/s | 2 W/m² | - |
| 1778025475 | 9.44° C | 96% | 1008.5 hPa | 0 mm | 0.89 m/s, 171° | 3 W/m² | - |
| 1778025172 | 9.44° C | 96% | 1008.5 hPa | 0 mm | 0.89 m/s, 58° | 7 W/m² | - |
| 1778024869 | 9.44° C | 96% | 1008.7 hPa | 0 mm | 0 m/s | 5 W/m² | - |
| 1778024567 | 10° C | 96% | 1008.4 hPa | 0 mm | 0 m/s | 8 W/m² | - |
| 1778024263 | 10° C | 96% | 1008.8 hPa | 1.78 mm | 0.45 m/s, 97° | 12 W/m² | - |
* Rain latest hour (hover to see other rain measurements)
** Current wind speed in m/s (hover to see current wind gust speed)